sensor_id;sensor_type;location;lat;lon;timestamp;pressure;altitude;pressure_sealevel;temperature;humidity
9059;BME280;4564;42.034;25.834;2023-06-14T00:02:24;99819.91;;;20.52;83.75
9059;BME280;4564;42.034;25.834;2023-06-14T00:04:50;99822.59;;;20.42;83.95
9059;BME280;4564;42.034;25.834;2023-06-14T00:07:17;99812.44;;;20.48;83.27
9059;BME280;4564;42.034;25.834;2023-06-14T00:09:44;99818.53;;;20.50;83.03
9059;BME280;4564;42.034;25.834;2023-06-14T00:12:11;99814.94;;;20.49;83.04
9059;BME280;4564;42.034;25.834;2023-06-14T00:14:38;99811.34;;;20.49;82.98
9059;BME280;4564;42.034;25.834;2023-06-14T00:17:06;99810.75;;;20.47;83.79
9059;BME280;4564;42.034;25.834;2023-06-14T00:19:33;99805.84;;;20.49;83.69
9059;BME280;4564;42.034;25.834;2023-06-14T00:22:01;99806.06;;;20.42;83.80
9059;BME280;4564;42.034;25.834;2023-06-14T00:24:28;99797.53;;;20.44;84.23
9059;BME280;4564;42.034;25.834;2023-06-14T00:26:55;99809.03;;;20.36;84.14
9059;BME280;4564;42.034;25.834;2023-06-14T00:29:21;99807.72;;;20.43;84.10
9059;BME280;4564;42.034;25.834;2023-06-14T00:31:48;99802.75;;;20.40;84.42
9059;BME280;4564;42.034;25.834;2023-06-14T00:34:16;99804.38;;;20.41;83.82
9059;BME280;4564;42.034;25.834;2023-06-14T00:36:42;99805.34;;;20.30;84.65
9059;BME280;4564;42.034;25.834;2023-06-14T00:39:09;99800.50;;;20.37;83.04
9059;BME280;4564;42.034;25.834;2023-06-14T00:41:36;99800.59;;;20.52;84.00
9059;BME280;4564;42.034;25.834;2023-06-14T00:44:02;99798.00;;;20.36;84.58
9059;BME280;4564;42.034;25.834;2023-06-14T00:46:29;99793.28;;;20.31;84.53
9059;BME280;4564;42.034;25.834;2023-06-14T00:48:56;99792.38;;;20.26;84.37
9059;BME280;4564;42.034;25.834;2023-06-14T00:51:24;99794.84;;;20.22;85.56
9059;BME280;4564;42.034;25.834;2023-06-14T00:53:51;99789.03;;;20.19;85.81
9059;BME280;4564;42.034;25.834;2023-06-14T00:56:18;99791.63;;;20.03;86.87
9059;BME280;4564;42.034;25.834;2023-06-14T00:58:46;99800.06;;;19.92;88.03
9059;BME280;4564;42.034;25.834;2023-06-14T01:01:12;99789.25;;;19.85;88.77
9059;BME280;4564;42.034;25.834;2023-06-14T01:03:39;99790.00;;;19.76;89.68
9059;BME280;4564;42.034;25.834;2023-06-14T01:06:09;99789.66;;;19.72;89.83
9059;BME280;4564;42.034;25.834;2023-06-14T01:08:43;99793.84;;;19.75;90.07
9059;BME280;4564;42.034;25.834;2023-06-14T01:11:15;99793.78;;;19.69;89.57
9059;BME280;4564;42.034;25.834;2023-06-14T01:13:43;99786.03;;;19.66;89.57
9059;BME280;4564;42.034;25.834;2023-06-14T01:16:12;99791.72;;;19.60;90.25
9059;BME280;4564;42.034;25.834;2023-06-14T01:18:38;99793.59;;;19.54;90.67
9059;BME280;4564;42.034;25.834;2023-06-14T01:21:15;99789.94;;;19.49;91.03
9059;BME280;4564;42.034;25.834;2023-06-14T01:23:47;99788.47;;;19.41;91.53
9059;BME280;4564;42.034;25.834;2023-06-14T01:26:18;99783.47;;;19.38;92.02
9059;BME280;4564;42.034;25.834;2023-06-14T01:28:45;99784.28;;;19.39;92.13
9059;BME280;4564;42.034;25.834;2023-06-14T01:31:17;99787.34;;;19.37;92.47
9059;BME280;4564;42.034;25.834;2023-06-14T01:33:44;99779.81;;;19.33;92.72
9059;BME280;4564;42.034;25.834;2023-06-14T01:36:11;99785.59;;;19.31;92.43
9059;BME280;4564;42.034;25.834;2023-06-14T01:38:38;99797.38;;;19.26;92.32
9059;BME280;4564;42.034;25.834;2023-06-14T01:41:07;99783.88;;;19.25;92.69
9059;BME280;4564;42.034;25.834;2023-06-14T01:43:34;99788.28;;;19.26;92.68
9059;BME280;4564;42.034;25.834;2023-06-14T01:46:02;99788.78;;;19.23;92.59
9059;BME280;4564;42.034;25.834;2023-06-14T01:48:29;99784.19;;;19.28;92.82
9059;BME280;4564;42.034;25.834;2023-06-14T01:50:55;99788.06;;;19.33;92.77
9059;BME280;4564;42.034;25.834;2023-06-14T01:53:22;99788.41;;;19.36;92.61
9059;BME280;4564;42.034;25.834;2023-06-14T01:55:49;99785.13;;;19.39;92.33
9059;BME280;4564;42.034;25.834;2023-06-14T01:58:17;99783.22;;;19.40;92.24
9059;BME280;4564;42.034;25.834;2023-06-14T02:00:43;99795.66;;;19.42;92.36
9059;BME280;4564;42.034;25.834;2023-06-14T02:03:10;99785.47;;;19.43;92.28
9059;BME280;4564;42.034;25.834;2023-06-14T02:05:38;99795.59;;;19.37;92.37
9059;BME280;4564;42.034;25.834;2023-06-14T02:08:05;99793.84;;;19.31;91.75
9059;BME280;4564;42.034;25.834;2023-06-14T02:10:31;99793.03;;;19.31;92.41
9059;BME280;4564;42.034;25.834;2023-06-14T02:12:58;99788.91;;;19.33;93.09
9059;BME280;4564;42.034;25.834;2023-06-14T02:15:26;99794.09;;;19.29;92.65
9059;BME280;4564;42.034;25.834;2023-06-14T02:17:59;99788.84;;;19.28;93.01
9059;BME280;4564;42.034;25.834;2023-06-14T02:20:26;99787.72;;;19.24;93.59
9059;BME280;4564;42.034;25.834;2023-06-14T02:22:52;99782.84;;;19.31;93.09
9059;BME280;4564;42.034;25.834;2023-06-14T02:25:19;99785.59;;;19.31;93.37
9059;BME280;4564;42.034;25.834;2023-06-14T02:27:45;99796.03;;;19.29;92.98
9059;BME280;4564;42.034;25.834;2023-06-14T02:30:12;99791.47;;;19.18;93.69
9059;BME280;4564;42.034;25.834;2023-06-14T02:32:42;99790.34;;;19.14;93.35
9059;BME280;4564;42.034;25.834;2023-06-14T02:35:09;99797.44;;;19.10;94.17
9059;BME280;4564;42.034;25.834;2023-06-14T02:37:35;99797.69;;;19.08;94.04
9059;BME280;4564;42.034;25.834;2023-06-14T02:40:02;99799.00;;;19.06;94.54
9059;BME280;4564;42.034;25.834;2023-06-14T02:42:29;99801.69;;;19.01;94.43
9059;BME280;4564;42.034;25.834;2023-06-14T02:44:56;99794.81;;;18.98;94.96
9059;BME280;4564;42.034;25.834;2023-06-14T02:47:23;99796.97;;;18.96;94.86
9059;BME280;4564;42.034;25.834;2023-06-14T02:49:51;99798.56;;;18.92;94.75
9059;BME280;4564;42.034;25.834;2023-06-14T02:52:17;99803.47;;;18.90;95.19
9059;BME280;4564;42.034;25.834;2023-06-14T02:54:44;99805.25;;;18.79;96.72
9059;BME280;4564;42.034;25.834;2023-06-14T02:57:12;99806.16;;;18.85;97.72
9059;BME280;4564;42.034;25.834;2023-06-14T02:59:39;99812.16;;;18.82;98.19
9059;BME280;4564;42.034;25.834;2023-06-14T03:02:07;99808.75;;;18.75;99.34
9059;BME280;4564;42.034;25.834;2023-06-14T03:04:34;99813.34;;;18.69;100.00
9059;BME280;4564;42.034;25.834;2023-06-14T03:07:03;99817.78;;;18.70;100.00
9059;BME280;4564;42.034;25.834;2023-06-14T03:09:34;99811.34;;;18.81;100.00
9059;BME280;4564;42.034;25.834;2023-06-14T03:12:01;99819.59;;;18.81;100.00
9059;BME280;4564;42.034;25.834;2023-06-14T03:14:28;99812.00;;;18.89;99.92
9059;BME280;4564;42.034;25.834;2023-06-14T03:16:55;99814.63;;;19.00;99.10
9059;BME280;4564;42.034;25.834;2023-06-14T03:19:22;99814.44;;;19.07;98.40
9059;BME280;4564;42.034;25.834;2023-06-14T03:21:49;99810.72;;;19.18;98.10
9059;BME280;4564;42.034;25.834;2023-06-14T03:24:17;99817.38;;;19.22;97.44
9059;BME280;4564;42.034;25.834;2023-06-14T03:26:43;99816.94;;;19.30;97.15
9059;BME280;4564;42.034;25.834;2023-06-14T03:29:10;99814.91;;;19.20;96.76
9059;BME280;4564;42.034;25.834;2023-06-14T03:31:41;99818.94;;;19.35;96.80
9059;BME280;4564;42.034;25.834;2023-06-14T03:34:22;99818.59;;;19.48;95.99
9059;BME280;4564;42.034;25.834;2023-06-14T03:36:48;99829.66;;;19.53;94.72
9059;BME280;4564;42.034;25.834;2023-06-14T03:39:17;99822.53;;;19.35;94.28
9059;BME280;4564;42.034;25.834;2023-06-14T03:41:43;99824.56;;;19.23;95.09
9059;BME280;4564;42.034;25.834;2023-06-14T03:44:10;99829.69;;;19.36;94.43
9059;BME280;4564;42.034;25.834;2023-06-14T03:46:36;99826.47;;;19.44;94.20
9059;BME280;4564;42.034;25.834;2023-06-14T03:49:03;99831.88;;;19.56;93.01
9059;BME280;4564;42.034;25.834;2023-06-14T03:51:30;99832.72;;;19.56;93.38
9059;BME280;4564;42.034;25.834;2023-06-14T03:53:56;99834.31;;;19.52;93.85
9059;BME280;4564;42.034;25.834;2023-06-14T03:56:24;99844.44;;;19.68;93.40
9059;BME280;4564;42.034;25.834;2023-06-14T03:58:52;99836.38;;;19.89;92.40
9059;BME280;4564;42.034;25.834;2023-06-14T04:01:18;99843.81;;;20.15;91.42
9059;BME280;4564;42.034;25.834;2023-06-14T04:03:45;99846.53;;;20.37;90.14
9059;BME280;4564;42.034;25.834;2023-06-14T04:06:11;99851.22;;;20.73;88.71
9059;BME280;4564;42.034;25.834;2023-06-14T04:08:44;99858.31;;;21.01;87.50
9059;BME280;4564;42.034;25.834;2023-06-14T04:11:11;99859.09;;;21.33;85.31
9059;BME280;4564;42.034;25.834;2023-06-14T04:13:39;99860.03;;;21.59;84.02
9059;BME280;4564;42.034;25.834;2023-06-14T04:16:05;99853.31;;;22.02;83.13
9059;BME280;4564;42.034;25.834;2023-06-14T04:18:32;99858.34;;;22.56;81.06
9059;BME280;4564;42.034;25.834;2023-06-14T04:20:58;99862.13;;;23.31;77.73
9059;BME280;4564;42.034;25.834;2023-06-14T04:23:25;99878.13;;;24.13;75.84
9059;BME280;4564;42.034;25.834;2023-06-14T04:25:53;99890.53;;;25.57;69.63
9059;BME280;4564;42.034;25.834;2023-06-14T04:28:20;99890.66;;;27.01;64.46
9059;BME280;4564;42.034;25.834;2023-06-14T04:30:51;99891.25;;;28.85;57.00
9059;BME280;4564;42.034;25.834;2023-06-14T04:33:18;99895.84;;;30.30;53.06
9059;BME280;4564;42.034;25.834;2023-06-14T04:35:45;99898.69;;;31.62;49.24
9059;BME280;4564;42.034;25.834;2023-06-14T04:38:12;99903.06;;;32.01;46.25
9059;BME280;4564;42.034;25.834;2023-06-14T04:40:41;99899.28;;;31.21;47.57
9059;BME280;4564;42.034;25.834;2023-06-14T04:43:09;99909.38;;;30.88;48.52
9059;BME280;4564;42.034;25.834;2023-06-14T04:45:38;99903.63;;;29.85;50.10
9059;BME280;4564;42.034;25.834;2023-06-14T04:48:06;99908.88;;;28.71;53.68
9059;BME280;4564;42.034;25.834;2023-06-14T04:50:33;99904.09;;;27.59;58.14
9059;BME280;4564;42.034;25.834;2023-06-14T04:53:00;99907.56;;;26.72;61.46
9059;BME280;4564;42.034;25.834;2023-06-14T04:55:26;99906.63;;;26.45;62.20
9059;BME280;4564;42.034;25.834;2023-06-14T04:57:53;99903.41;;;25.95;64.69
9059;BME280;4564;42.034;25.834;2023-06-14T05:00:20;99909.78;;;25.96;64.90
9059;BME280;4564;42.034;25.834;2023-06-14T05:02:47;99915.09;;;25.73;65.96
9059;BME280;4564;42.034;25.834;2023-06-14T05:05:17;99910.28;;;25.79;65.28
9059;BME280;4564;42.034;25.834;2023-06-14T05:07:45;99914.81;;;25.94;64.63
9059;BME280;4564;42.034;25.834;2023-06-14T05:10:11;99921.84;;;25.86;64.28
9059;BME280;4564;42.034;25.834;2023-06-14T05:12:38;99924.47;;;26.01;62.58
9059;BME280;4564;42.034;25.834;2023-06-14T05:15:05;99924.63;;;26.10;62.85
9059;BME280;4564;42.034;25.834;2023-06-14T05:17:32;99927.97;;;27.19;59.82
9059;BME280;4564;42.034;25.834;2023-06-14T05:20:01;99942.03;;;29.31;51.90
9059;BME280;4564;42.034;25.834;2023-06-14T05:22:29;99939.38;;;30.96;47.77
9059;BME280;4564;42.034;25.834;2023-06-14T05:24:55;99936.03;;;32.22;45.59
9059;BME280;4564;42.034;25.834;2023-06-14T05:27:22;99943.25;;;32.94;42.25
9059;BME280;4564;42.034;25.834;2023-06-14T05:29:50;99953.06;;;33.08;42.29
9059;BME280;4564;42.034;25.834;2023-06-14T05:32:16;99952.09;;;33.70;39.84
9059;BME280;4564;42.034;25.834;2023-06-14T05:34:43;99959.78;;;34.06;37.45
9059;BME280;4564;42.034;25.834;2023-06-14T05:37:09;99959.28;;;34.28;36.59
9059;BME280;4564;42.034;25.834;2023-06-14T05:39:38;99962.03;;;33.55;37.34
9059;BME280;4564;42.034;25.834;2023-06-14T05:42:04;99963.22;;;32.59;39.68
9059;BME280;4564;42.034;25.834;2023-06-14T05:44:31;99958.25;;;31.68;42.27
9059;BME280;4564;42.034;25.834;2023-06-14T05:46:58;99969.28;;;31.73;42.43
9059;BME280;4564;42.034;25.834;2023-06-14T05:49:24;99961.81;;;30.79;42.55
9059;BME280;4564;42.034;25.834;2023-06-14T05:51:51;99976.22;;;30.29;43.80
9059;BME280;4564;42.034;25.834;2023-06-14T05:54:18;99969.09;;;30.15;44.31
9059;BME280;4564;42.034;25.834;2023-06-14T05:56:46;99974.25;;;30.21;44.75
9059;BME280;4564;42.034;25.834;2023-06-14T05:59:12;99970.03;;;29.93;45.94
9059;BME280;4564;42.034;25.834;2023-06-14T06:01:39;99979.69;;;30.26;44.51
9059;BME280;4564;42.034;25.834;2023-06-14T06:04:05;99975.16;;;30.08;44.90
9059;BME280;4564;42.034;25.834;2023-06-14T06:06:32;99971.28;;;29.87;45.89
9059;BME280;4564;42.034;25.834;2023-06-14T06:08:59;99971.41;;;29.73;47.28
9059;BME280;4564;42.034;25.834;2023-06-14T06:11:25;99973.00;;;29.66;46.68
9059;BME280;4564;42.034;25.834;2023-06-14T06:13:53;99977.28;;;29.63;45.91
9059;BME280;4564;42.034;25.834;2023-06-14T06:16:20;99977.47;;;29.75;45.97
9059;BME280;4564;42.034;25.834;2023-06-14T06:18:46;99978.16;;;29.81;45.35
9059;BME280;4564;42.034;25.834;2023-06-14T06:21:13;99984.38;;;29.38;46.42
9059;BME280;4564;42.034;25.834;2023-06-14T06:23:40;99978.03;;;29.55;47.07
9059;BME280;4564;42.034;25.834;2023-06-14T06:26:07;99977.34;;;29.80;45.79
9059;BME280;4564;42.034;25.834;2023-06-14T06:28:33;99980.59;;;29.96;44.75
9059;BME280;4564;42.034;25.834;2023-06-14T06:31:01;99977.66;;;29.48;46.34
9059;BME280;4564;42.034;25.834;2023-06-14T06:33:28;99983.41;;;29.74;45.64
9059;BME280;4564;42.034;25.834;2023-06-14T06:35:54;99985.47;;;29.59;42.80
9059;BME280;4564;42.034;25.834;2023-06-14T06:38:21;99980.81;;;29.24;44.00
9059;BME280;4564;42.034;25.834;2023-06-14T06:40:48;99987.72;;;29.27;42.46
9059;BME280;4564;42.034;25.834;2023-06-14T06:43:14;99991.06;;;29.59;43.56
9059;BME280;4564;42.034;25.834;2023-06-14T06:45:42;99990.97;;;29.95;42.63
9059;BME280;4564;42.034;25.834;2023-06-14T06:48:10;99985.19;;;30.49;41.73
9059;BME280;4564;42.034;25.834;2023-06-14T06:50:36;99982.91;;;31.02;40.29
9059;BME280;4564;42.034;25.834;2023-06-14T06:53:03;99989.16;;;31.97;38.48
9059;BME280;4564;42.034;25.834;2023-06-14T06:55:30;99987.03;;;32.82;37.43
9059;BME280;4564;42.034;25.834;2023-06-14T06:57:57;99975.50;;;32.55;35.62
9059;BME280;4564;42.034;25.834;2023-06-14T07:00:25;99981.56;;;32.36;35.61
9059;BME280;4564;42.034;25.834;2023-06-14T07:02:51;99980.69;;;32.15;36.65
9059;BME280;4564;42.034;25.834;2023-06-14T07:05:21;99977.34;;;31.83;36.37
9059;BME280;4564;42.034;25.834;2023-06-14T07:07:48;99972.13;;;32.02;38.84
9059;BME280;4564;42.034;25.834;2023-06-14T07:10:14;99978.50;;;33.12;35.66
9059;BME280;4564;42.034;25.834;2023-06-14T07:12:41;99988.69;;;34.27;33.44
9059;BME280;4564;42.034;25.834;2023-06-14T07:15:08;99988.34;;;35.49;31.69
9059;BME280;4564;42.034;25.834;2023-06-14T07:17:35;99985.72;;;36.50;30.08
9059;BME280;4564;42.034;25.834;2023-06-14T07:20:02;99987.44;;;36.20;29.54
9059;BME280;4564;42.034;25.834;2023-06-14T07:22:34;99982.47;;;35.85;29.86
9059;BME280;4564;42.034;25.834;2023-06-14T07:25:01;99982.69;;;35.92;29.36
9059;BME280;4564;42.034;25.834;2023-06-14T07:27:29;99976.94;;;35.89;28.73
9059;BME280;4564;42.034;25.834;2023-06-14T07:29:55;99979.66;;;35.42;29.60
9059;BME280;4564;42.034;25.834;2023-06-14T07:32:22;99977.84;;;34.29;32.78
9059;BME280;4564;42.034;25.834;2023-06-14T07:34:49;99975.28;;;34.36;31.46
9059;BME280;4564;42.034;25.834;2023-06-14T07:37:16;99967.09;;;35.11;31.00
9059;BME280;4564;42.034;25.834;2023-06-14T07:39:44;99973.56;;;35.99;30.15
9059;BME280;4564;42.034;25.834;2023-06-14T07:42:10;99976.44;;;37.42;28.86
9059;BME280;4564;42.034;25.834;2023-06-14T07:44:37;99975.78;;;38.17;26.47
9059;BME280;4564;42.034;25.834;2023-06-14T07:47:04;99977.38;;;38.14;25.28
9059;BME280;4564;42.034;25.834;2023-06-14T07:49:31;99970.88;;;37.68;26.85
9059;BME280;4564;42.034;25.834;2023-06-14T07:51:58;99969.75;;;37.96;26.98
9059;BME280;4564;42.034;25.834;2023-06-14T07:54:25;99978.34;;;38.75;24.92
9059;BME280;4564;42.034;25.834;2023-06-14T07:56:54;99985.03;;;39.19;24.84
9059;BME280;4564;42.034;25.834;2023-06-14T07:59:21;99984.19;;;39.52;24.64
9059;BME280;4564;42.034;25.834;2023-06-14T08:01:48;99986.47;;;39.06;25.99
9059;BME280;4564;42.034;25.834;2023-06-14T08:04:14;99990.19;;;39.10;24.12
9059;BME280;4564;42.034;25.834;2023-06-14T08:06:41;99980.03;;;38.27;24.90
9059;BME280;4564;42.034;25.834;2023-06-14T08:09:09;99981.28;;;37.61;26.23
9059;BME280;4564;42.034;25.834;2023-06-14T08:11:36;99981.53;;;37.98;26.11
9059;BME280;4564;42.034;25.834;2023-06-14T08:14:04;99978.38;;;37.38;26.80
9059;BME280;4564;42.034;25.834;2023-06-14T08:16:30;99975.94;;;35.81;28.60
9059;BME280;4564;42.034;25.834;2023-06-14T08:18:57;99978.63;;;35.18;29.69
9059;BME280;4564;42.034;25.834;2023-06-14T08:21:23;99976.91;;;34.49;30.89
9059;BME280;4564;42.034;25.834;2023-06-14T08:23:54;99962.28;;;33.62;31.55
9059;BME280;4564;42.034;25.834;2023-06-14T08:26:21;99972.03;;;33.32;32.18
9059;BME280;4564;42.034;25.834;2023-06-14T08:28:48;99970.84;;;31.91;35.88
9059;BME280;4564;42.034;25.834;2023-06-14T08:31:16;99966.66;;;32.06;36.07
9059;BME280;4564;42.034;25.834;2023-06-14T08:33:42;99967.13;;;32.17;35.86
9059;BME280;4564;42.034;25.834;2023-06-14T08:36:09;99968.41;;;32.28;34.92
9059;BME280;4564;42.034;25.834;2023-06-14T08:38:37;99968.94;;;32.42;35.85
9059;BME280;4564;42.034;25.834;2023-06-14T08:41:04;99976.91;;;32.02;35.08
9059;BME280;4564;42.034;25.834;2023-06-14T08:43:31;99980.03;;;31.54;35.71
9059;BME280;4564;42.034;25.834;2023-06-14T08:45:58;99966.09;;;31.02;37.98
9059;BME280;4564;42.034;25.834;2023-06-14T08:48:27;99969.38;;;31.21;36.89
9059;BME280;4564;42.034;25.834;2023-06-14T08:50:54;99974.00;;;31.90;35.54
9059;BME280;4564;42.034;25.834;2023-06-14T08:53:27;99974.44;;;31.62;35.94
9059;BME280;4564;42.034;25.834;2023-06-14T08:55:54;99973.78;;;31.57;34.79
9059;BME280;4564;42.034;25.834;2023-06-14T08:58:20;99977.06;;;31.67;35.03
9059;BME280;4564;42.034;25.834;2023-06-14T09:00:49;99972.34;;;31.34;35.48
9059;BME280;4564;42.034;25.834;2023-06-14T09:03:17;99970.88;;;31.27;36.34
9059;BME280;4564;42.034;25.834;2023-06-14T09:05:47;99982.09;;;30.84;36.65
9059;BME280;4564;42.034;25.834;2023-06-14T09:08:15;99988.44;;;30.33;37.66
9059;BME280;4564;42.034;25.834;2023-06-14T09:10:44;99977.13;;;30.73;37.88
9059;BME280;4564;42.034;25.834;2023-06-14T09:13:11;99968.72;;;31.42;36.27
9059;BME280;4564;42.034;25.834;2023-06-14T09:15:38;99981.31;;;31.82;35.82
9059;BME280;4564;42.034;25.834;2023-06-14T09:18:05;99977.09;;;31.50;37.18
9059;BME280;4564;42.034;25.834;2023-06-14T09:20:32;99979.00;;;31.03;37.29
9059;BME280;4564;42.034;25.834;2023-06-14T09:23:01;99973.31;;;31.46;36.10
9059;BME280;4564;42.034;25.834;2023-06-14T09:25:27;99975.72;;;31.74;34.19
9059;BME280;4564;42.034;25.834;2023-06-14T09:27:54;99967.00;;;31.49;35.10
9059;BME280;4564;42.034;25.834;2023-06-14T09:30:20;99973.13;;;31.51;35.66
9059;BME280;4564;42.034;25.834;2023-06-14T09:32:47;99971.47;;;31.59;36.94
9059;BME280;4564;42.034;25.834;2023-06-14T09:35:15;99977.28;;;31.37;35.17
9059;BME280;4564;42.034;25.834;2023-06-14T09:37:43;99959.50;;;31.15;35.70
9059;BME280;4564;42.034;25.834;2023-06-14T09:40:12;99964.94;;;31.29;34.68
9059;BME280;4564;42.034;25.834;2023-06-14T09:42:38;99966.94;;;30.85;36.03
9059;BME280;4564;42.034;25.834;2023-06-14T09:45:07;99956.88;;;31.19;37.33
9059;BME280;4564;42.034;25.834;2023-06-14T09:47:34;99958.25;;;31.59;35.09
9059;BME280;4564;42.034;25.834;2023-06-14T09:50:01;99960.38;;;31.71;35.38
9059;BME280;4564;42.034;25.834;2023-06-14T09:52:27;99954.56;;;31.85;35.81
9059;BME280;4564;42.034;25.834;2023-06-14T09:54:54;99952.66;;;31.97;35.06
9059;BME280;4564;42.034;25.834;2023-06-14T09:57:22;99959.41;;;32.05;34.00
9059;BME280;4564;42.034;25.834;2023-06-14T09:59:52;99949.00;;;31.67;35.61
9059;BME280;4564;42.034;25.834;2023-06-14T10:02:21;99945.97;;;31.17;35.56
9059;BME280;4564;42.034;25.834;2023-06-14T10:04:50;99946.97;;;30.70;36.17
9059;BME280;4564;42.034;25.834;2023-06-14T10:07:19;99946.00;;;30.66;36.21
9059;BME280;4564;42.034;25.834;2023-06-14T10:09:47;99937.22;;;30.50;38.61
9059;BME280;4564;42.034;25.834;2023-06-14T10:12:16;99938.69;;;30.99;37.08
9059;BME280;4564;42.034;25.834;2023-06-14T10:14:48;99942.28;;;30.31;37.79
9059;BME280;4564;42.034;25.834;2023-06-14T10:17:17;99933.38;;;30.20;38.82
9059;BME280;4564;42.034;25.834;2023-06-14T10:19:48;99931.41;;;30.21;37.76
9059;BME280;4564;42.034;25.834;2023-06-14T10:22:19;99929.53;;;29.99;37.16
9059;BME280;4564;42.034;25.834;2023-06-14T10:24:50;99930.84;;;30.01;37.86
9059;BME280;4564;42.034;25.834;2023-06-14T10:27:16;99926.94;;;30.11;37.30
9059;BME280;4564;42.034;25.834;2023-06-14T10:30:06;99937.84;;;30.30;37.09
9059;BME280;4564;42.034;25.834;2023-06-14T10:32:33;99927.97;;;30.41;37.08
9059;BME280;4564;42.034;25.834;2023-06-14T10:35:00;99929.44;;;30.21;36.67
9059;BME280;4564;42.034;25.834;2023-06-14T10:37:28;99936.44;;;30.01;38.12
9059;BME280;4564;42.034;25.834;2023-06-14T10:39:54;99915.41;;;30.04;38.37
9059;BME280;4564;42.034;25.834;2023-06-14T10:42:21;99915.47;;;30.38;40.43
9059;BME280;4564;42.034;25.834;2023-06-14T10:44:51;99916.41;;;30.25;37.30
9059;BME280;4564;42.034;25.834;2023-06-14T10:47:26;99912.16;;;30.45;37.76
9059;BME280;4564;42.034;25.834;2023-06-14T10:49:53;99910.31;;;30.06;39.35
9059;BME280;4564;42.034;25.834;2023-06-14T10:52:21;99904.06;;;30.26;37.89
9059;BME280;4564;42.034;25.834;2023-06-14T10:55:07;99908.63;;;29.96;37.84
9059;BME280;4564;42.034;25.834;2023-06-14T10:57:37;99906.84;;;29.70;38.37
9059;BME280;4564;42.034;25.834;2023-06-14T11:00:04;99905.22;;;29.69;38.19
9059;BME280;4564;42.034;25.834;2023-06-14T11:02:46;99895.31;;;29.63;37.51
9059;BME280;4564;42.034;25.834;2023-06-14T11:05:14;99909.16;;;29.68;38.37
9059;BME280;4564;42.034;25.834;2023-06-14T11:07:43;99899.63;;;29.69;38.56
9059;BME280;4564;42.034;25.834;2023-06-14T11:10:17;99896.25;;;29.49;36.80
9059;BME280;4564;42.034;25.834;2023-06-14T11:12:49;99894.56;;;29.79;41.36
9059;BME280;4564;42.034;25.834;2023-06-14T11:15:19;99894.63;;;29.96;37.97
9059;BME280;4564;42.034;25.834;2023-06-14T11:17:51;99890.63;;;29.89;38.29
9059;BME280;4564;42.034;25.834;2023-06-14T11:20:18;99891.09;;;29.74;37.78
9059;BME280;4564;42.034;25.834;2023-06-14T11:22:45;99891.03;;;29.65;38.38
9059;BME280;4564;42.034;25.834;2023-06-14T11:25:12;99889.06;;;29.66;39.15
9059;BME280;4564;42.034;25.834;2023-06-14T11:27:39;99878.16;;;29.95;38.27
9059;BME280;4564;42.034;25.834;2023-06-14T11:30:07;99882.00;;;30.33;36.86
9059;BME280;4564;42.034;25.834;2023-06-14T11:32:34;99872.16;;;30.53;37.80
9059;BME280;4564;42.034;25.834;2023-06-14T11:35:02;99874.44;;;30.42;36.81
9059;BME280;4564;42.034;25.834;2023-06-14T11:37:30;99874.94;;;30.44;37.90
9059;BME280;4564;42.034;25.834;2023-06-14T11:39:58;99877.41;;;30.37;37.81
9059;BME280;4564;42.034;25.834;2023-06-14T11:42:26;99870.13;;;30.19;37.79
9059;BME280;4564;42.034;25.834;2023-06-14T11:44:53;99877.53;;;30.24;39.04
9059;BME280;4564;42.034;25.834;2023-06-14T11:47:19;99879.03;;;30.30;37.55
9059;BME280;4564;42.034;25.834;2023-06-14T11:49:46;99868.00;;;30.33;37.79
9059;BME280;4564;42.034;25.834;2023-06-14T11:52:14;99874.75;;;30.32;36.84
9059;BME280;4564;42.034;25.834;2023-06-14T11:54:41;99867.19;;;30.41;36.18
9059;BME280;4564;42.034;25.834;2023-06-14T11:57:07;99865.69;;;30.61;36.09
9059;BME280;4564;42.034;25.834;2023-06-14T11:59:37;99866.69;;;30.74;38.03
9059;BME280;4564;42.034;25.834;2023-06-14T12:02:04;99864.38;;;30.84;36.36
9059;BME280;4564;42.034;25.834;2023-06-14T12:04:31;99867.13;;;31.02;37.47
9059;BME280;4564;42.034;25.834;2023-06-14T12:07:08;99863.19;;;30.94;35.89
9059;BME280;4564;42.034;25.834;2023-06-14T12:09:36;99868.00;;;30.68;37.89
9059;BME280;4564;42.034;25.834;2023-06-14T12:12:03;99864.53;;;30.19;39.60
9059;BME280;4564;42.034;25.834;2023-06-14T12:14:29;99865.31;;;30.02;39.17
9059;BME280;4564;42.034;25.834;2023-06-14T12:17:03;99864.50;;;29.93;38.87
9059;BME280;4564;42.034;25.834;2023-06-14T12:19:31;99867.56;;;29.83;38.06
9059;BME280;4564;42.034;25.834;2023-06-14T12:21:58;99862.38;;;29.90;38.99
9059;BME280;4564;42.034;25.834;2023-06-14T12:24:27;99851.69;;;30.01;39.93
9059;BME280;4564;42.034;25.834;2023-06-14T12:26:56;99849.69;;;30.10;38.16
9059;BME280;4564;42.034;25.834;2023-06-14T12:29:24;99848.41;;;30.16;37.92
9059;BME280;4564;42.034;25.834;2023-06-14T12:31:51;99848.06;;;30.09;38.42
9059;BME280;4564;42.034;25.834;2023-06-14T12:34:19;99841.94;;;29.90;38.95
9059;BME280;4564;42.034;25.834;2023-06-14T12:37:00;99837.56;;;29.58;41.03
9059;BME280;4564;42.034;25.834;2023-06-14T12:39:38;99846.66;;;29.81;39.21
9059;BME280;4564;42.034;25.834;2023-06-14T12:42:28;99836.75;;;29.75;39.04
9059;BME280;4564;42.034;25.834;2023-06-14T12:45:15;99824.88;;;29.60;39.97
9059;BME280;4564;42.034;25.834;2023-06-14T12:47:42;99825.19;;;29.50;40.01
9059;BME280;4564;42.034;25.834;2023-06-14T12:50:08;99831.81;;;29.72;40.16
9059;BME280;4564;42.034;25.834;2023-06-14T12:52:35;99827.06;;;29.72;39.16
9059;BME280;4564;42.034;25.834;2023-06-14T12:55:02;99817.38;;;29.87;39.32
9059;BME280;4564;42.034;25.834;2023-06-14T12:57:31;99816.59;;;29.95;38.99
9059;BME280;4564;42.034;25.834;2023-06-14T12:59:59;99817.56;;;30.08;37.64
9059;BME280;4564;42.034;25.834;2023-06-14T13:02:26;99813.63;;;30.09;38.17
9059;BME280;4564;42.034;25.834;2023-06-14T13:04:53;99810.66;;;30.31;38.25
9059;BME280;4564;42.034;25.834;2023-06-14T13:07:19;99814.31;;;30.49;37.87
9059;BME280;4564;42.034;25.834;2023-06-14T13:09:46;99802.25;;;30.57;36.51
9059;BME280;4564;42.034;25.834;2023-06-14T13:12:12;99800.94;;;30.45;37.61
9059;BME280;4564;42.034;25.834;2023-06-14T13:14:40;99811.78;;;30.73;37.20